aviador You're here:

KGEV Decoded Metar

JEFFERSON in NC, USA
Report Time2017-04-25 08:25:00
UTC Time2017-04-25 08:32:23
Flight Rules lifr LIFR
Wind020° at 03 kt
W.Decomp.*RWY 10: 0.9 kt HW 2.9 kt LCW
W.Rank020° ranks 28
Current wind is below 020° avg. (3.9)
Visibility4828 m
Phenomena:Heavy Drizzle
Clouds:Broken 004 Hf
Overcast 009 Hf
Ceiling400 ft
Temp09°C (ISA 0)
Dew Point09°C (100% RH)
AAT7.7°C
QNH1007 hPa
Density Alt3,586 ft
Elevation3,179 ft
Report Wrong Elevation
Raw Report
METAR KGEV 250825Z AUTO 02003KT 3SM +DZ BKN004 OVC009 09/09 A2973 RMK
AO2 T00920091=

Extra information for KGEV:More info

Metar Taf Metar & Taf Last 4 Metars F.Rules Stats Wind Profile Meteogram Temp Stats Airport Information Weather charts Add Link Nearby VenuesMetar ALERT Operation Metar Decoded Social comments

AIRNAV info for KGEV